sensor_id;sensor_type;location;lat;lon;timestamp;P1;durP1;ratioP1;P2;durP2;ratioP2
25359;SDS011;13311;51.386;0.016;2023-04-03T00:00:51;13.80;;;3.13;;
25359;SDS011;13311;51.386;0.016;2023-04-03T00:05:52;10.18;;;2.20;;
25359;SDS011;13311;51.386;0.016;2023-04-03T00:10:53;12.45;;;1.98;;
25359;SDS011;13311;51.386;0.016;2023-04-03T00:15:53;9.57;;;2.83;;
25359;SDS011;13311;51.386;0.016;2023-04-03T00:20:54;9.95;;;2.53;;
25359;SDS011;13311;51.386;0.016;2023-04-03T00:25:55;7.28;;;2.00;;
25359;SDS011;13311;51.386;0.016;2023-04-03T00:30:56;13.15;;;2.63;;
25359;SDS011;13311;51.386;0.016;2023-04-03T00:35:57;10.75;;;3.22;;
25359;SDS011;13311;51.386;0.016;2023-04-03T00:40:57;11.35;;;2.58;;
25359;SDS011;13311;51.386;0.016;2023-04-03T00:45:58;7.35;;;2.47;;
25359;SDS011;13311;51.386;0.016;2023-04-03T00:51:00;9.68;;;2.50;;
25359;SDS011;13311;51.386;0.016;2023-04-03T00:56:08;18.15;;;2.70;;
25359;SDS011;13311;51.386;0.016;2023-04-03T01:01:12;14.43;;;2.42;;
25359;SDS011;13311;51.386;0.016;2023-04-03T01:06:17;11.63;;;2.47;;
25359;SDS011;13311;51.386;0.016;2023-04-03T01:11:31;10.25;;;2.50;;
25359;SDS011;13311;51.386;0.016;2023-04-03T01:16:32;12.88;;;2.60;;
25359;SDS011;13311;51.386;0.016;2023-04-03T01:27:04;18.92;;;3.25;;
25359;SDS011;13311;51.386;0.016;2023-04-03T01:32:07;13.75;;;3.05;;
25359;SDS011;13311;51.386;0.016;2023-04-03T01:37:07;12.18;;;2.45;;
25359;SDS011;13311;51.386;0.016;2023-04-03T01:42:08;7.85;;;2.25;;
25359;SDS011;13311;51.386;0.016;2023-04-03T01:47:10;12.98;;;3.13;;
25359;SDS011;13311;51.386;0.016;2023-04-03T01:52:10;6.68;;;2.17;;
25359;SDS011;13311;51.386;0.016;2023-04-03T01:57:11;15.27;;;2.83;;
25359;SDS011;13311;51.386;0.016;2023-04-03T02:02:13;10.95;;;2.78;;
25359;SDS011;13311;51.386;0.016;2023-04-03T02:07:14;7.70;;;2.25;;
25359;SDS011;13311;51.386;0.016;2023-04-03T02:12:15;10.65;;;2.75;;
25359;SDS011;13311;51.386;0.016;2023-04-03T02:17:16;10.10;;;2.47;;
25359;SDS011;13311;51.386;0.016;2023-04-03T02:22:16;8.40;;;2.63;;
25359;SDS011;13311;51.386;0.016;2023-04-03T02:27:17;6.30;;;3.13;;
25359;SDS011;13311;51.386;0.016;2023-04-03T02:32:18;9.45;;;2.35;;
25359;SDS011;13311;51.386;0.016;2023-04-03T02:37:19;8.80;;;2.70;;
25359;SDS011;13311;51.386;0.016;2023-04-03T02:42:21;9.35;;;2.38;;
25359;SDS011;13311;51.386;0.016;2023-04-03T02:47:21;10.40;;;2.15;;
25359;SDS011;13311;51.386;0.016;2023-04-03T02:52:22;7.70;;;2.00;;
25359;SDS011;13311;51.386;0.016;2023-04-03T02:57:23;8.82;;;2.15;;
25359;SDS011;13311;51.386;0.016;2023-04-03T03:02:23;10.48;;;2.30;;
25359;SDS011;13311;51.386;0.016;2023-04-03T03:07:24;5.85;;;2.58;;
25359;SDS011;13311;51.386;0.016;2023-04-03T03:12:25;5.70;;;1.83;;
25359;SDS011;13311;51.386;0.016;2023-04-03T03:17:26;6.75;;;2.53;;
25359;SDS011;13311;51.386;0.016;2023-04-03T03:22:27;9.95;;;2.22;;
25359;SDS011;13311;51.386;0.016;2023-04-03T03:27:28;10.07;;;2.58;;
25359;SDS011;13311;51.386;0.016;2023-04-03T03:32:29;4.38;;;2.13;;
25359;SDS011;13311;51.386;0.016;2023-04-03T03:37:30;8.68;;;2.53;;
25359;SDS011;13311;51.386;0.016;2023-04-03T03:42:31;6.85;;;2.30;;
25359;SDS011;13311;51.386;0.016;2023-04-03T03:47:31;9.70;;;2.88;;
25359;SDS011;13311;51.386;0.016;2023-04-03T03:52:32;13.52;;;2.67;;
25359;SDS011;13311;51.386;0.016;2023-04-03T03:57:33;6.80;;;2.40;;
25359;SDS011;13311;51.386;0.016;2023-04-03T04:02:33;10.07;;;2.97;;
25359;SDS011;13311;51.386;0.016;2023-04-03T04:07:34;7.38;;;2.88;;
25359;SDS011;13311;51.386;0.016;2023-04-03T04:12:35;8.95;;;2.47;;
25359;SDS011;13311;51.386;0.016;2023-04-03T04:17:36;8.65;;;2.10;;
25359;SDS011;13311;51.386;0.016;2023-04-03T04:22:36;8.32;;;2.35;;
25359;SDS011;13311;51.386;0.016;2023-04-03T04:27:38;7.82;;;2.53;;
25359;SDS011;13311;51.386;0.016;2023-04-03T04:32:39;8.65;;;2.58;;
25359;SDS011;13311;51.386;0.016;2023-04-03T04:37:40;14.18;;;2.95;;
25359;SDS011;13311;51.386;0.016;2023-04-03T04:42:41;13.55;;;3.55;;
25359;SDS011;13311;51.386;0.016;2023-04-03T04:47:42;8.63;;;3.33;;
25359;SDS011;13311;51.386;0.016;2023-04-03T04:52:43;10.82;;;3.25;;
25359;SDS011;13311;51.386;0.016;2023-04-03T04:57:44;8.13;;;2.53;;
25359;SDS011;13311;51.386;0.016;2023-04-03T05:02:45;9.23;;;2.50;;
25359;SDS011;13311;51.386;0.016;2023-04-03T05:07:45;9.27;;;3.15;;
25359;SDS011;13311;51.386;0.016;2023-04-03T05:12:46;8.80;;;3.10;;
25359;SDS011;13311;51.386;0.016;2023-04-03T05:17:47;11.98;;;3.42;;
25359;SDS011;13311;51.386;0.016;2023-04-03T05:22:48;9.85;;;3.45;;
25359;SDS011;13311;51.386;0.016;2023-04-03T05:27:48;7.13;;;2.72;;
25359;SDS011;13311;51.386;0.016;2023-04-03T05:32:49;7.18;;;2.95;;
25359;SDS011;13311;51.386;0.016;2023-04-03T05:37:50;6.93;;;3.35;;
25359;SDS011;13311;51.386;0.016;2023-04-03T05:42:51;16.45;;;4.18;;
25359;SDS011;13311;51.386;0.016;2023-04-03T05:47:53;17.48;;;3.75;;
25359;SDS011;13311;51.386;0.016;2023-04-03T05:52:55;12.10;;;4.07;;
25359;SDS011;13311;51.386;0.016;2023-04-03T05:57:58;9.30;;;3.45;;
25359;SDS011;13311;51.386;0.016;2023-04-03T06:02:59;8.32;;;2.83;;
25359;SDS011;13311;51.386;0.016;2023-04-03T06:08:00;12.50;;;3.83;;
25359;SDS011;13311;51.386;0.016;2023-04-03T06:13:01;11.38;;;3.80;;
25359;SDS011;13311;51.386;0.016;2023-04-03T06:18:02;10.05;;;3.08;;
25359;SDS011;13311;51.386;0.016;2023-04-03T06:23:03;12.25;;;4.05;;
25359;SDS011;13311;51.386;0.016;2023-04-03T06:28:04;11.73;;;4.03;;
25359;SDS011;13311;51.386;0.016;2023-04-03T06:33:04;11.25;;;4.10;;
25359;SDS011;13311;51.386;0.016;2023-04-03T06:38:05;13.45;;;3.50;;
25359;SDS011;13311;51.386;0.016;2023-04-03T06:43:09;7.30;;;3.15;;
25359;SDS011;13311;51.386;0.016;2023-04-03T06:48:10;14.23;;;4.70;;
25359;SDS011;13311;51.386;0.016;2023-04-03T06:53:11;11.65;;;4.20;;
25359;SDS011;13311;51.386;0.016;2023-04-03T06:58:12;19.98;;;4.03;;
25359;SDS011;13311;51.386;0.016;2023-04-03T07:03:13;14.05;;;3.55;;
25359;SDS011;13311;51.386;0.016;2023-04-03T07:08:14;14.23;;;3.90;;
25359;SDS011;13311;51.386;0.016;2023-04-03T07:13:15;10.95;;;3.33;;
25359;SDS011;13311;51.386;0.016;2023-04-03T07:18:16;13.88;;;3.33;;
25359;SDS011;13311;51.386;0.016;2023-04-03T07:23:17;10.18;;;2.90;;
25359;SDS011;13311;51.386;0.016;2023-04-03T07:28:19;10.48;;;3.67;;
25359;SDS011;13311;51.386;0.016;2023-04-03T07:33:22;15.65;;;4.38;;
25359;SDS011;13311;51.386;0.016;2023-04-03T07:38:23;10.13;;;3.20;;
25359;SDS011;13311;51.386;0.016;2023-04-03T07:43:25;12.75;;;4.13;;
25359;SDS011;13311;51.386;0.016;2023-04-03T07:48:26;11.43;;;3.72;;
25359;SDS011;13311;51.386;0.016;2023-04-03T07:53:27;9.93;;;4.00;;
25359;SDS011;13311;51.386;0.016;2023-04-03T07:58:28;11.90;;;3.85;;
25359;SDS011;13311;51.386;0.016;2023-04-03T08:03:30;11.82;;;4.30;;
25359;SDS011;13311;51.386;0.016;2023-04-03T08:08:30;8.73;;;4.40;;
25359;SDS011;13311;51.386;0.016;2023-04-03T08:13:32;9.50;;;4.57;;
25359;SDS011;13311;51.386;0.016;2023-04-03T08:18:35;13.73;;;4.60;;
25359;SDS011;13311;51.386;0.016;2023-04-03T08:23:36;14.48;;;4.70;;
25359;SDS011;13311;51.386;0.016;2023-04-03T08:28:39;15.48;;;4.35;;
25359;SDS011;13311;51.386;0.016;2023-04-03T08:33:40;12.32;;;3.97;;
25359;SDS011;13311;51.386;0.016;2023-04-03T08:38:41;14.27;;;4.35;;
25359;SDS011;13311;51.386;0.016;2023-04-03T08:49:29;15.15;;;5.18;;
25359;SDS011;13311;51.386;0.016;2023-04-03T08:54:35;17.40;;;5.13;;
25359;SDS011;13311;51.386;0.016;2023-04-03T08:59:48;16.80;;;5.57;;
25359;SDS011;13311;51.386;0.016;2023-04-03T09:04:49;16.25;;;5.50;;
25359;SDS011;13311;51.386;0.016;2023-04-03T09:09:50;21.55;;;5.97;;
25359;SDS011;13311;51.386;0.016;2023-04-03T09:15:09;9.07;;;4.70;;
25359;SDS011;13311;51.386;0.016;2023-04-03T09:26:04;13.90;;;5.82;;
25359;SDS011;13311;51.386;0.016;2023-04-03T09:31:24;13.88;;;5.65;;
25359;SDS011;13311;51.386;0.016;2023-04-03T09:36:37;15.70;;;6.05;;
25359;SDS011;13311;51.386;0.016;2023-04-03T09:41:57;11.43;;;5.18;;
25359;SDS011;13311;51.386;0.016;2023-04-03T09:52:33;11.68;;;5.25;;
25359;SDS011;13311;51.386;0.016;2023-04-03T09:57:34;17.38;;;6.20;;
25359;SDS011;13311;51.386;0.016;2023-04-03T10:02:36;13.35;;;6.35;;
25359;SDS011;13311;51.386;0.016;2023-04-03T10:07:39;18.50;;;5.75;;
25359;SDS011;13311;51.386;0.016;2023-04-03T10:12:40;13.38;;;5.15;;
25359;SDS011;13311;51.386;0.016;2023-04-03T10:28:31;9.80;;;4.82;;
25359;SDS011;13311;51.386;0.016;2023-04-03T10:55:17;7.90;;;3.80;;
25359;SDS011;13311;51.386;0.016;2023-04-03T11:00:28;6.18;;;3.80;;
25359;SDS011;13311;51.386;0.016;2023-04-03T11:05:45;4.55;;;3.50;;
25359;SDS011;13311;51.386;0.016;2023-04-03T11:10:50;9.40;;;4.00;;
25359;SDS011;13311;51.386;0.016;2023-04-03T11:15:54;7.88;;;4.28;;
25359;SDS011;13311;51.386;0.016;2023-04-03T11:21:02;10.40;;;4.35;;
25359;SDS011;13311;51.386;0.016;2023-04-03T11:26:12;7.05;;;3.67;;
25359;SDS011;13311;51.386;0.016;2023-04-03T11:36:46;7.40;;;3.75;;
25359;SDS011;13311;51.386;0.016;2023-04-03T11:41:50;5.90;;;3.13;;
25359;SDS011;13311;51.386;0.016;2023-04-03T11:46:52;6.03;;;3.13;;
25359;SDS011;13311;51.386;0.016;2023-04-03T11:51:55;9.88;;;3.38;;
25359;SDS011;13311;51.386;0.016;2023-04-03T11:56:56;5.97;;;3.05;;
25359;SDS011;13311;51.386;0.016;2023-04-03T12:01:57;4.53;;;2.65;;
25359;SDS011;13311;51.386;0.016;2023-04-03T12:07:00;7.05;;;3.17;;
25359;SDS011;13311;51.386;0.016;2023-04-03T12:17:33;6.10;;;3.03;;
25359;SDS011;13311;51.386;0.016;2023-04-03T12:22:34;6.93;;;3.85;;
25359;SDS011;13311;51.386;0.016;2023-04-03T12:27:38;5.03;;;2.72;;
25359;SDS011;13311;51.386;0.016;2023-04-03T12:32:50;6.15;;;3.67;;
25359;SDS011;13311;51.386;0.016;2023-04-03T12:38:25;7.93;;;3.80;;
25359;SDS011;13311;51.386;0.016;2023-04-03T12:49:14;6.10;;;3.20;;
25359;SDS011;13311;51.386;0.016;2023-04-03T12:54:36;9.05;;;3.53;;
25359;SDS011;13311;51.386;0.016;2023-04-03T12:59:42;6.22;;;2.92;;
25359;SDS011;13311;51.386;0.016;2023-04-03T13:04:46;5.82;;;3.10;;
25359;SDS011;13311;51.386;0.016;2023-04-03T13:09:56;7.80;;;3.38;;
25359;SDS011;13311;51.386;0.016;2023-04-03T13:15:20;4.47;;;2.80;;
25359;SDS011;13311;51.386;0.016;2023-04-03T13:20:28;6.38;;;2.88;;
25359;SDS011;13311;51.386;0.016;2023-04-03T13:25:33;6.13;;;2.72;;
25359;SDS011;13311;51.386;0.016;2023-04-03T13:30:37;4.00;;;2.42;;
25359;SDS011;13311;51.386;0.016;2023-04-03T13:35:40;6.45;;;2.83;;
25359;SDS011;13311;51.386;0.016;2023-04-03T13:40:48;9.13;;;3.20;;
25359;SDS011;13311;51.386;0.016;2023-04-03T13:46:00;6.95;;;2.95;;
25359;SDS011;13311;51.386;0.016;2023-04-03T14:01:41;4.75;;;2.40;;
25359;SDS011;13311;51.386;0.016;2023-04-03T14:06:53;7.00;;;2.70;;
25359;SDS011;13311;51.386;0.016;2023-04-03T14:11:56;6.88;;;3.42;;
25359;SDS011;13311;51.386;0.016;2023-04-03T14:17:10;6.32;;;3.13;;
25359;SDS011;13311;51.386;0.016;2023-04-03T14:22:24;6.30;;;4.05;;
25359;SDS011;13311;51.386;0.016;2023-04-03T14:27:39;7.35;;;3.55;;
25359;SDS011;13311;51.386;0.016;2023-04-03T14:32:44;7.90;;;3.67;;
25359;SDS011;13311;51.386;0.016;2023-04-03T14:37:47;6.88;;;3.28;;
25359;SDS011;13311;51.386;0.016;2023-04-03T14:42:48;8.68;;;4.03;;
25359;SDS011;13311;51.386;0.016;2023-04-03T14:47:51;9.00;;;4.35;;
25359;SDS011;13311;51.386;0.016;2023-04-03T14:52:57;10.70;;;4.60;;
25359;SDS011;13311;51.386;0.016;2023-04-03T14:57:58;6.68;;;3.63;;
25359;SDS011;13311;51.386;0.016;2023-04-03T15:03:00;9.80;;;4.82;;
25359;SDS011;13311;51.386;0.016;2023-04-03T15:08:00;7.32;;;3.80;;
25359;SDS011;13311;51.386;0.016;2023-04-03T15:13:01;6.30;;;3.53;;
25359;SDS011;13311;51.386;0.016;2023-04-03T15:18:02;8.00;;;4.35;;
25359;SDS011;13311;51.386;0.016;2023-04-03T15:23:04;8.35;;;4.30;;
25359;SDS011;13311;51.386;0.016;2023-04-03T15:28:06;7.20;;;4.20;;
25359;SDS011;13311;51.386;0.016;2023-04-03T15:33:36;7.25;;;4.05;;
25359;SDS011;13311;51.386;0.016;2023-04-03T15:38:37;8.70;;;3.40;;
25359;SDS011;13311;51.386;0.016;2023-04-03T15:43:38;4.43;;;3.50;;
25359;SDS011;13311;51.386;0.016;2023-04-03T15:48:39;4.25;;;3.20;;
25359;SDS011;13311;51.386;0.016;2023-04-03T15:53:40;5.10;;;2.95;;
25359;SDS011;13311;51.386;0.016;2023-04-03T15:58:42;7.25;;;3.22;;
25359;SDS011;13311;51.386;0.016;2023-04-03T16:03:42;8.40;;;3.08;;
25359;SDS011;13311;51.386;0.016;2023-04-03T16:08:46;4.22;;;1.92;;
25359;SDS011;13311;51.386;0.016;2023-04-03T16:13:47;4.47;;;2.10;;
25359;SDS011;13311;51.386;0.016;2023-04-03T16:18:48;6.07;;;2.33;;
25359;SDS011;13311;51.386;0.016;2023-04-03T16:23:49;9.13;;;3.50;;
25359;SDS011;13311;51.386;0.016;2023-04-03T16:28:51;6.63;;;2.90;;
25359;SDS011;13311;51.386;0.016;2023-04-03T16:33:53;6.50;;;3.05;;
25359;SDS011;13311;51.386;0.016;2023-04-03T16:38:56;6.38;;;3.55;;
25359;SDS011;13311;51.386;0.016;2023-04-03T16:43:56;6.68;;;3.72;;
25359;SDS011;13311;51.386;0.016;2023-04-03T16:48:57;7.80;;;3.38;;
25359;SDS011;13311;51.386;0.016;2023-04-03T16:53:58;8.65;;;3.35;;
25359;SDS011;13311;51.386;0.016;2023-04-03T16:58:58;11.00;;;3.90;;
25359;SDS011;13311;51.386;0.016;2023-04-03T17:03:59;5.68;;;2.50;;
25359;SDS011;13311;51.386;0.016;2023-04-03T17:09:00;5.47;;;3.20;;
25359;SDS011;13311;51.386;0.016;2023-04-03T17:14:01;4.38;;;2.67;;
25359;SDS011;13311;51.386;0.016;2023-04-03T17:19:02;7.00;;;2.10;;
25359;SDS011;13311;51.386;0.016;2023-04-03T17:24:05;6.10;;;2.50;;
25359;SDS011;13311;51.386;0.016;2023-04-03T17:29:08;8.88;;;2.53;;
25359;SDS011;13311;51.386;0.016;2023-04-03T17:34:09;7.53;;;2.10;;
25359;SDS011;13311;51.386;0.016;2023-04-03T17:39:11;5.03;;;2.03;;
25359;SDS011;13311;51.386;0.016;2023-04-03T17:44:13;9.00;;;2.53;;
25359;SDS011;13311;51.386;0.016;2023-04-03T17:49:13;8.02;;;2.83;;
25359;SDS011;13311;51.386;0.016;2023-04-03T17:54:17;16.20;;;3.53;;
25359;SDS011;13311;51.386;0.016;2023-04-03T17:59:18;6.55;;;2.17;;
25359;SDS011;13311;51.386;0.016;2023-04-03T18:04:19;7.85;;;2.30;;
25359;SDS011;13311;51.386;0.016;2023-04-03T18:09:21;4.95;;;2.05;;
25359;SDS011;13311;51.386;0.016;2023-04-03T18:14:26;6.85;;;2.38;;
25359;SDS011;13311;51.386;0.016;2023-04-03T18:19:27;6.22;;;2.58;;
25359;SDS011;13311;51.386;0.016;2023-04-03T18:24:28;10.68;;;3.03;;
25359;SDS011;13311;51.386;0.016;2023-04-03T18:29:34;9.93;;;2.85;;
25359;SDS011;13311;51.386;0.016;2023-04-03T18:34:38;10.45;;;3.05;;
25359;SDS011;13311;51.386;0.016;2023-04-03T18:39:40;6.88;;;3.20;;
25359;SDS011;13311;51.386;0.016;2023-04-03T18:44:42;8.15;;;3.03;;
25359;SDS011;13311;51.386;0.016;2023-04-03T18:49:45;12.00;;;3.80;;
25359;SDS011;13311;51.386;0.016;2023-04-03T18:54:46;9.82;;;4.57;;
25359;SDS011;13311;51.386;0.016;2023-04-03T18:59:48;10.18;;;4.00;;
25359;SDS011;13311;51.386;0.016;2023-04-03T19:04:50;16.73;;;4.13;;
25359;SDS011;13311;51.386;0.016;2023-04-03T19:09:54;8.00;;;3.70;;
25359;SDS011;13311;51.386;0.016;2023-04-03T19:14:56;8.60;;;3.58;;
25359;SDS011;13311;51.386;0.016;2023-04-03T19:19:57;10.27;;;3.97;;
25359;SDS011;13311;51.386;0.016;2023-04-03T19:24:58;12.77;;;3.20;;
25359;SDS011;13311;51.386;0.016;2023-04-03T19:29:59;8.98;;;3.15;;
25359;SDS011;13311;51.386;0.016;2023-04-03T19:35:00;7.28;;;2.78;;
25359;SDS011;13311;51.386;0.016;2023-04-03T19:40:02;9.40;;;2.97;;
25359;SDS011;13311;51.386;0.016;2023-04-03T19:45:04;8.57;;;2.95;;
25359;SDS011;13311;51.386;0.016;2023-04-03T19:50:06;16.65;;;3.70;;
25359;SDS011;13311;51.386;0.016;2023-04-03T19:55:07;10.85;;;3.08;;
25359;SDS011;13311;51.386;0.016;2023-04-03T20:00:09;6.82;;;3.28;;
25359;SDS011;13311;51.386;0.016;2023-04-03T20:05:12;7.55;;;3.05;;
25359;SDS011;13311;51.386;0.016;2023-04-03T20:10:13;8.75;;;2.53;;
25359;SDS011;13311;51.386;0.016;2023-04-03T20:15:15;11.40;;;2.03;;
25359;SDS011;13311;51.386;0.016;2023-04-03T20:20:16;8.75;;;2.95;;
25359;SDS011;13311;51.386;0.016;2023-04-03T20:25:18;5.45;;;2.83;;
25359;SDS011;13311;51.386;0.016;2023-04-03T20:30:19;8.50;;;3.13;;
25359;SDS011;13311;51.386;0.016;2023-04-03T20:35:20;4.93;;;2.90;;
25359;SDS011;13311;51.386;0.016;2023-04-03T20:40:21;13.68;;;3.63;;
25359;SDS011;13311;51.386;0.016;2023-04-03T20:45:21;12.40;;;5.40;;
25359;SDS011;13311;51.386;0.016;2023-04-03T20:50:24;12.02;;;5.45;;
25359;SDS011;13311;51.386;0.016;2023-04-03T20:55:26;10.27;;;5.63;;
25359;SDS011;13311;51.386;0.016;2023-04-03T21:00:27;16.98;;;5.05;;
25359;SDS011;13311;51.386;0.016;2023-04-03T21:05:31;13.98;;;6.15;;
25359;SDS011;13311;51.386;0.016;2023-04-03T21:21:32;12.90;;;4.35;;
25359;SDS011;13311;51.386;0.016;2023-04-03T21:26:36;11.77;;;4.78;;
25359;SDS011;13311;51.386;0.016;2023-04-03T21:37:02;10.43;;;5.38;;
25359;SDS011;13311;51.386;0.016;2023-04-03T21:42:05;13.55;;;5.65;;
25359;SDS011;13311;51.386;0.016;2023-04-03T21:47:06;15.50;;;6.63;;
25359;SDS011;13311;51.386;0.016;2023-04-03T21:52:07;12.88;;;5.70;;
25359;SDS011;13311;51.386;0.016;2023-04-03T21:57:08;18.95;;;6.88;;
25359;SDS011;13311;51.386;0.016;2023-04-03T22:02:12;16.50;;;6.40;;
25359;SDS011;13311;51.386;0.016;2023-04-03T22:07:13;16.65;;;5.93;;
25359;SDS011;13311;51.386;0.016;2023-04-03T22:12:13;12.98;;;5.63;;
25359;SDS011;13311;51.386;0.016;2023-04-03T22:17:14;12.25;;;4.82;;
25359;SDS011;13311;51.386;0.016;2023-04-03T22:22:15;8.43;;;4.05;;
25359;SDS011;13311;51.386;0.016;2023-04-03T22:27:16;9.32;;;4.80;;
25359;SDS011;13311;51.386;0.016;2023-04-03T22:32:17;11.02;;;4.85;;
25359;SDS011;13311;51.386;0.016;2023-04-03T22:37:17;12.40;;;6.22;;
25359;SDS011;13311;51.386;0.016;2023-04-03T22:42:18;14.88;;;5.95;;
25359;SDS011;13311;51.386;0.016;2023-04-03T22:47:19;8.57;;;4.63;;
25359;SDS011;13311;51.386;0.016;2023-04-03T22:52:20;9.50;;;3.88;;
25359;SDS011;13311;51.386;0.016;2023-04-03T22:57:21;10.30;;;5.25;;
25359;SDS011;13311;51.386;0.016;2023-04-03T23:02:22;6.57;;;4.47;;
25359;SDS011;13311;51.386;0.016;2023-04-03T23:07:23;13.02;;;4.80;;
25359;SDS011;13311;51.386;0.016;2023-04-03T23:12:23;12.45;;;6.60;;
25359;SDS011;13311;51.386;0.016;2023-04-03T23:17:24;21.45;;;7.28;;
25359;SDS011;13311;51.386;0.016;2023-04-03T23:22:26;15.93;;;7.28;;
25359;SDS011;13311;51.386;0.016;2023-04-03T23:27:26;12.50;;;5.82;;
25359;SDS011;13311;51.386;0.016;2023-04-03T23:32:27;11.18;;;4.80;;
25359;SDS011;13311;51.386;0.016;2023-04-03T23:37:29;13.00;;;4.80;;
25359;SDS011;13311;51.386;0.016;2023-04-03T23:42:29;8.93;;;5.22;;
25359;SDS011;13311;51.386;0.016;2023-04-03T23:47:30;12.07;;;5.20;;
25359;SDS011;13311;51.386;0.016;2023-04-03T23:52:31;11.73;;;5.85;;
25359;SDS011;13311;51.386;0.016;2023-04-03T23:57:32;15.30;;;6.50;;
